Time;durP1;ratioP1;P1;durP2;ratioP2;P2;SDS_P1;SDS_P2;PMS_P1;PMS_P2;Temp;Humidity;BMP_temperature;BMP_pressure;BME280_temperature;BME280_humidity;BME280_pressure;Samples;Min_cycle;Max_cycle;Signal;HPM_P1;HPM_P2
2022/08/26 00:00:10;;;;;;;6.72;6.15;;;21.20;99.90;;;;;;5074355;28;20321;-85
2022/08/26 00:02:39;;;;;;;6.65;6.05;;;21.20;99.90;;;;;;5074335;28;20243;-84
2022/08/26 00:05:08;;;;;;;10.10;5.68;;;21.20;99.90;;;;;;5074015;28;20205;-83
2022/08/26 00:07:36;;;;;;;5.55;5.05;;;21.10;99.90;;;;;;5073932;28;20208;-84
2022/08/26 00:10:07;;;;;;;6.80;6.05;;;21.10;99.90;;;;;;5073543;28;20211;-84
2022/08/26 00:12:36;;;;;;;5.55;5.07;;;21.10;99.90;;;;;;5073807;28;20239;-83
2022/08/26 00:15:06;;;;;;;7.35;6.22;;;21.00;99.90;;;;;;5074567;28;20231;-83
2022/08/26 00:17:35;;;;;;;6.38;5.50;;;21.00;99.90;;;;;;5073791;28;20265;-83
2022/08/26 00:20:09;;;;;;;6.47;5.50;;;21.00;99.90;;;;;;5073326;28;20221;-83
2022/08/26 00:22:38;;;;;;;5.95;5.45;;;21.00;99.90;;;;;;5073595;28;20278;-83
2022/08/26 00:25:10;;;;;;;8.15;6.88;;;21.00;99.90;;;;;;5073956;28;20288;-83
2022/08/26 00:27:39;;;;;;;6.15;5.65;;;21.00;99.90;;;;;;5074171;28;20284;-83
2022/08/26 00:30:10;;;;;;;6.22;5.63;;;20.90;99.90;;;;;;5073959;28;20205;-83
2022/08/26 00:32:39;;;;;;;6.22;5.65;;;21.00;99.90;;;;;;5078049;28;20256;-83
2022/08/26 00:35:11;;;;;;;9.15;5.40;;;21.00;99.90;;;;;;5078067;28;20201;-83
2022/08/26 00:37:41;;;;;;;7.32;6.18;;;20.90;99.90;;;;;;5077474;28;20200;-83
2022/08/26 00:40:17;;;;;;;7.40;6.50;;;20.90;99.90;;;;;;5077033;28;20223;-83
2022/08/26 00:42:46;;;;;;;5.47;4.88;;;20.90;99.90;;;;;;5077408;28;20282;-83
2022/08/26 00:45:16;;;;;;;5.78;5.32;;;20.90;99.90;;;;;;5077438;28;20208;-82
2022/08/26 00:47:47;;;;;;;5.95;5.45;;;20.90;99.90;;;;;;5077174;28;20232;-83
2022/08/26 00:50:21;;;;;;;5.22;4.80;;;20.90;99.90;;;;;;5077249;28;20205;-82
2022/08/26 00:52:51;;;;;;;5.95;5.38;;;20.80;99.90;;;;;;5076817;28;20256;-83
2022/08/26 00:55:26;;;;;;;5.95;5.18;;;20.80;99.90;;;;;;5077367;28;20292;-83
2022/08/26 00:58:07;;;;;;;7.07;5.57;;;20.80;99.90;;;;;;5077663;28;20291;-83
2022/08/26 01:00:35;;;;;;;4.82;4.43;;;20.80;99.90;;;;;;5077118;28;20303;-83
2022/08/26 01:03:04;;;;;;;6.28;5.68;;;20.80;99.90;;;;;;5077513;28;20233;-83
2022/08/26 01:05:39;;;;;;;6.45;5.85;;;20.80;99.90;;;;;;5077671;28;20280;-83
2022/08/26 01:08:07;;;;;;;6.28;5.78;;;20.80;99.90;;;;;;5077587;28;20209;-83
2022/08/26 01:10:37;;;;;;;6.18;5.57;;;20.70;99.90;;;;;;5077720;28;20288;-83
2022/08/26 01:13:10;;;;;;;7.20;5.70;;;20.70;99.90;;;;;;5077427;28;20255;-83
2022/08/26 01:15:43;;;;;;;6.65;5.63;;;20.70;99.90;;;;;;5076440;28;20296;-83
2022/08/26 01:18:13;;;;;;;5.70;5.20;;;20.70;99.90;;;;;;5097608;28;20220;-83
2022/08/26 01:20:54;;;;;;;5.95;5.45;;;20.70;99.90;;;;;;5096018;28;20233;-83
2022/08/26 01:23:28;;;;;;;6.05;5.63;;;20.70;99.90;;;;;;5077725;28;20205;-83
2022/08/26 01:26:02;;;;;;;5.47;4.97;;;20.70;99.90;;;;;;5076776;28;20272;-83
2022/08/26 01:28:34;;;;;;;6.10;5.50;;;20.70;99.90;;;;;;5076323;28;20258;-83
2022/08/26 01:31:05;;;;;;;7.25;5.93;;;20.60;99.90;;;;;;5077272;28;20288;-84
2022/08/26 01:33:40;;;;;;;5.30;4.80;;;20.60;99.90;;;;;;5076984;28;20243;-83
2022/08/26 01:36:11;;;;;;;6.10;4.80;;;20.60;99.90;;;;;;5075828;28;20212;-83
2022/08/26 01:38:42;;;;;;;6.50;5.70;;;20.50;99.90;;;;;;5075219;28;20227;-83
2022/08/26 01:41:13;;;;;;;6.32;5.72;;;20.50;99.90;;;;;;5074488;28;20311;-83
2022/08/26 01:43:50;;;;;;;5.35;4.85;;;20.50;99.90;;;;;;5075713;28;20208;-83
2022/08/26 01:46:22;;;;;;;11.80;5.90;;;20.50;99.90;;;;;;5075349;28;20296;-83
2022/08/26 01:48:53;;;;;;;6.30;5.72;;;20.40;99.90;;;;;;5074945;28;20213;-83
2022/08/26 01:51:23;;;;;;;5.55;5.05;;;20.40;99.90;;;;;;5075142;28;20308;-83
2022/08/26 01:53:53;;;;;;;5.82;5.20;;;20.50;99.90;;;;;;5075171;28;20205;-83
2022/08/26 01:56:22;;;;;;;5.70;5.13;;;20.40;99.90;;;;;;5075123;28;20291;-83
2022/08/26 01:58:53;;;;;;;6.75;6.05;;;20.40;99.90;;;;;;5075003;28;20288;-82
2022/08/26 02:01:22;;;;;;;7.13;5.18;;;20.40;99.90;;;;;;5074616;28;20225;-83
2022/08/26 02:04:03;;;;;;;5.53;5.03;;;20.30;99.90;;;;;;5075421;28;20284;-83
2022/08/26 02:06:31;;;;;;;5.55;5.05;;;20.30;99.90;;;;;;5074728;28;20295;-83
2022/08/26 02:09:04;;;;;;;7.35;5.47;;;20.30;99.90;;;;;;5074703;28;20284;-83
2022/08/26 02:11:34;;;;;;;6.45;4.63;;;20.30;99.90;;;;;;5074712;28;20300;-83
2022/08/26 02:14:11;;;;;;;5.13;4.60;;;20.20;99.90;;;;;;5074565;28;20228;-83
2022/08/26 02:16:44;;;;;;;5.57;5.00;;;20.20;99.90;;;;;;5074447;28;20227;-83
2022/08/26 02:19:16;;;;;;;7.10;5.93;;;20.10;99.90;;;;;;5074742;28;20209;-83
2022/08/26 02:21:47;;;;;;;7.13;6.05;;;20.10;99.90;;;;;;5074169;28;20220;-83
2022/08/26 02:24:23;;;;;;;6.82;5.53;;;20.10;99.90;;;;;;5074406;28;20220;-83
2022/08/26 02:26:56;;;;;;;7.32;5.65;;;20.10;99.90;;;;;;5074346;28;20287;-83
2022/08/26 02:29:29;;;;;;;5.97;5.35;;;20.10;99.90;;;;;;5074538;28;20205;-83
2022/08/26 02:31:58;;;;;;;6.05;5.55;;;20.10;99.90;;;;;;5074484;28;20235;-83
2022/08/26 02:34:30;;;;;;;6.40;5.63;;;20.00;99.90;;;;;;5074193;28;20260;-83
2022/08/26 02:36:59;;;;;;;5.82;5.32;;;20.10;99.90;;;;;;5074224;28;20209;-83
2022/08/26 02:39:30;;;;;;;6.80;5.50;;;20.00;99.90;;;;;;5074357;28;20205;-83
2022/08/26 02:41:59;;;;;;;6.47;5.82;;;20.00;99.90;;;;;;5074068;28;20304;-83
2022/08/26 02:44:28;;;;;;;5.95;5.35;;;20.00;99.90;;;;;;5074047;28;20215;-82
2022/08/26 02:46:56;;;;;;;6.05;5.55;;;20.00;99.90;;;;;;5074080;28;20288;-82
2022/08/26 02:49:27;;;;;;;5.72;5.22;;;20.00;99.90;;;;;;5073732;28;20208;-82
2022/08/26 02:51:55;;;;;;;5.03;4.63;;;19.90;99.90;;;;;;5074377;28;20292;-82
2022/08/26 02:54:23;;;;;;;4.72;4.35;;;19.90;99.90;;;;;;5073059;28;20266;-83
2022/08/26 02:56:54;;;;;;;5.55;5.05;;;19.90;99.90;;;;;;5073873;28;20288;-82
2022/08/26 02:59:22;;;;;;;6.15;5.60;;;19.90;99.90;;;;;;5073661;28;20255;-82
2022/08/26 03:01:52;;;;;;;5.60;5.10;;;19.90;99.90;;;;;;5073389;28;20228;-82
2022/08/26 03:04:24;;;;;;;6.25;5.68;;;19.90;99.90;;;;;;5073854;28;20209;-83
2022/08/26 03:06:53;;;;;;;8.38;6.57;;;19.80;99.90;;;;;;5073714;28;20204;-83
2022/08/26 03:09:22;;;;;;;5.93;5.43;;;19.90;99.90;;;;;;5073420;28;20231;-82
2022/08/26 03:11:51;;;;;;;5.47;4.95;;;19.80;99.90;;;;;;5073589;28;20229;-82
2022/08/26 03:14:22;;;;;;;6.53;4.85;;;19.80;99.90;;;;;;5073636;28;20208;-82
2022/08/26 03:16:53;;;;;;;5.95;5.32;;;19.80;99.90;;;;;;5073371;28;20212;-82
2022/08/26 03:19:22;;;;;;;9.60;6.20;;;19.80;99.90;;;;;;5073310;28;20263;-82
2022/08/26 03:21:51;;;;;;;7.07;6.05;;;19.80;99.90;;;;;;5072827;28;20233;-82
2022/08/26 03:24:20;;;;;;;6.50;5.90;;;19.80;99.90;;;;;;5073194;28;20292;-82
2022/08/26 03:26:48;;;;;;;6.15;5.43;;;19.80;99.90;;;;;;5073387;28;20235;-82
2022/08/26 03:32:07;;;;;;;5.78;5.28;;;19.80;99.90;;;;;;5042091;28;20232;-83
2022/08/26 03:34:36;;;;;;;5.45;4.97;;;19.80;99.90;;;;;;5073166;28;20213;-82
2022/08/26 03:37:05;;;;;;;6.88;5.47;;;19.80;99.90;;;;;;5073121;28;20231;-83
2022/08/26 03:39:35;;;;;;;6.25;5.68;;;19.80;99.90;;;;;;5073155;28;20213;-82
2022/08/26 03:42:04;;;;;;;5.95;5.28;;;19.80;99.90;;;;;;5072986;28;20308;-83
2022/08/26 03:44:34;;;;;;;5.10;4.70;;;19.70;99.90;;;;;;5072948;28;20239;-83
2022/08/26 03:47:07;;;;;;;6.93;6.22;;;19.70;99.90;;;;;;5072949;28;20209;-83
2022/08/26 03:49:36;;;;;;;5.40;4.90;;;19.70;99.90;;;;;;5072430;28;20220;-83
2022/08/26 03:52:05;;;;;;;5.32;4.85;;;19.70;99.90;;;;;;5072887;28;20308;-83
2022/08/26 03:54:34;;;;;;;6.47;5.88;;;19.70;99.90;;;;;;5072801;28;20265;-83
2022/08/26 03:57:02;;;;;;;6.82;6.18;;;19.60;99.90;;;;;;5072808;28;20206;-83
2022/08/26 03:59:32;;;;;;;6.32;5.10;;;19.60;99.90;;;;;;5057573;28;20197;-82
2022/08/26 04:02:01;;;;;;;6.50;5.90;;;19.60;99.90;;;;;;5052219;28;20291;-83
2022/08/26 04:04:36;;;;;;;5.40;5.00;;;19.60;99.90;;;;;;5052661;28;20288;-82
2022/08/26 04:07:05;;;;;;;6.60;5.80;;;19.60;99.90;;;;;;5052999;28;20215;-83
2022/08/26 04:09:35;;;;;;;5.85;5.32;;;19.60;99.90;;;;;;5052539;28;20212;-84
2022/08/26 04:12:04;;;;;;;6.50;5.93;;;19.60;99.90;;;;;;5052391;28;20252;-83
2022/08/26 04:14:34;;;;;;;6.85;6.18;;;19.60;99.90;;;;;;5052752;28;20205;-82
2022/08/26 04:17:06;;;;;;;5.28;4.82;;;19.50;99.90;;;;;;5052701;28;20284;-82
2022/08/26 04:19:34;;;;;;;5.95;5.45;;;19.50;99.90;;;;;;5052288;28;20290;-83
2022/08/26 04:22:02;;;;;;;5.75;5.25;;;19.50;99.90;;;;;;5052356;28;20234;-83
2022/08/26 04:24:31;;;;;;;7.68;5.70;;;19.50;99.90;;;;;;5052051;28;20201;-82
2022/08/26 04:27:01;;;;;;;6.43;5.85;;;19.50;99.90;;;;;;5052498;28;20293;-82
2022/08/26 04:29:29;;;;;;;10.13;6.28;;;19.60;99.90;;;;;;5052303;28;20205;-83
2022/08/26 04:31:57;;;;;;;6.97;6.28;;;19.60;99.90;;;;;;5052380;28;20225;-82
2022/08/26 04:34:28;;;;;;;6.22;5.63;;;19.60;99.90;;;;;;5052480;28;20269;-82
2022/08/26 04:36:57;;;;;;;6.85;6.13;;;19.60;99.90;;;;;;5052733;28;20206;-83
2022/08/26 04:39:26;;;;;;;6.43;5.82;;;19.50;99.90;;;;;;5052188;28;20214;-83
2022/08/26 04:41:55;;;;;;;5.88;5.15;;;19.60;99.90;;;;;;5052284;28;20238;-83
2022/08/26 04:44:28;;;;;;;7.30;6.45;;;19.60;99.90;;;;;;5052291;28;20206;-83
2022/08/26 04:46:57;;;;;;;9.35;6.25;;;19.60;99.90;;;;;;5052738;28;20212;-83
2022/08/26 04:49:27;;;;;;;6.55;5.95;;;19.60;99.90;;;;;;5058153;28;20201;-81
2022/08/26 04:52:03;;;;;;;6.00;5.40;;;19.60;99.90;;;;;;5072885;28;20246;-83
2022/08/26 04:54:32;;;;;;;6.00;5.47;;;19.60;99.90;;;;;;5060313;28;20301;-82
2022/08/26 04:57:00;;;;;;;8.05;7.28;;;19.60;99.90;;;;;;5052476;28;20281;-83
2022/08/26 04:59:28;;;;;;;6.72;5.65;;;19.60;99.90;;;;;;5053240;28;20197;-82
2022/08/26 05:01:58;;;;;;;5.93;5.40;;;19.70;99.90;;;;;;5064030;28;20214;-82
2022/08/26 05:04:28;;;;;;;8.10;5.57;;;19.70;99.90;;;;;;5052548;28;20205;-82
2022/08/26 05:06:57;;;;;;;6.90;6.35;;;19.80;99.90;;;;;;5067764;28;20209;-84
2022/08/26 05:09:30;;;;;;;6.60;6.00;;;19.80;99.90;;;;;;5072641;28;20209;-82
2022/08/26 05:11:58;;;;;;;6.75;6.22;;;19.80;99.90;;;;;;5072427;28;20273;-82
2022/08/26 05:14:26;;;;;;;14.82;6.35;;;19.90;99.90;;;;;;5072670;28;20288;-82
2022/08/26 05:16:54;;;;;;;9.55;7.47;;;19.90;99.90;;;;;;5074443;28;20228;-82
2022/08/26 05:19:23;;;;;;;6.95;6.25;;;19.90;99.90;;;;;;5058504;28;20198;-81
2022/08/26 05:21:56;;;;;;;7.53;6.65;;;20.00;99.90;;;;;;5055964;28;20245;-82
2022/08/26 05:24:24;;;;;;;8.02;7.22;;;20.00;99.90;;;;;;5056178;28;20292;-82
2022/08/26 05:26:54;;;;;;;10.48;7.70;;;20.10;99.90;;;;;;5055906;28;20209;-82
2022/08/26 05:29:24;;;;;;;8.68;7.32;;;20.10;99.90;;;;;;5055931;28;20201;-82
2022/08/26 05:31:53;;;;;;;8.25;6.85;;;20.20;99.90;;;;;;5055665;28;20232;-82
2022/08/26 05:34:23;;;;;;;8.95;7.05;;;20.30;99.90;;;;;;5055849;28;20289;-82
2022/08/26 05:36:59;;;;;;;7.45;5.93;;;20.40;99.90;;;;;;5056186;28;20205;-82
2022/08/26 05:39:27;;;;;;;8.77;6.95;;;20.30;99.90;;;;;;5056016;28;20297;-82
2022/08/26 05:41:56;;;;;;;9.13;6.63;;;20.40;99.90;;;;;;5056208;28;20230;-82
2022/08/26 05:44:24;;;;;;;8.73;6.28;;;20.40;99.90;;;;;;5056094;28;20289;-82
2022/08/26 05:46:52;;;;;;;7.25;6.65;;;20.50;99.90;;;;;;5055888;28;20256;-82
2022/08/26 05:49:21;;;;;;;9.15;6.10;;;20.50;99.90;;;;;;5055733;28;20213;-83
2022/08/26 05:51:53;;;;;;;12.23;7.40;;;20.50;99.90;;;;;;5067658;28;20225;-82
2022/08/26 05:54:23;;;;;;;9.55;7.20;;;20.60;99.90;;;;;;5075956;28;20260;-82
2022/08/26 05:56:51;;;;;;;8.10;7.30;;;20.60;99.90;;;;;;5075739;28;20205;-82
2022/08/26 05:59:19;;;;;;;7.15;6.55;;;20.70;99.90;;;;;;5062184;28;20200;-82
2022/08/26 06:01:51;;;;;;;6.95;6.22;;;20.70;99.90;;;;;;5055325;28;20226;-82
2022/08/26 06:04:20;;;;;;;6.88;6.22;;;20.80;99.90;;;;;;5055256;28;20217;-82
2022/08/26 06:06:48;;;;;;;8.93;6.85;;;20.80;99.90;;;;;;5068646;28;20200;-82
2022/08/26 06:09:16;;;;;;;7.20;6.50;;;20.90;99.90;;;;;;5075307;28;20201;-82
2022/08/26 06:11:46;;;;;;;8.02;7.28;;;21.00;99.90;;;;;;5075097;28;20274;-82
2022/08/26 06:14:16;;;;;;;8.20;6.97;;;21.10;99.90;;;;;;5074520;28;20197;-82
2022/08/26 06:16:45;;;;;;;9.13;7.55;;;21.20;99.90;;;;;;5075418;28;20202;-82
2022/08/26 06:19:16;;;;;;;8.65;7.78;;;21.20;99.90;;;;;;5074045;28;20215;-82
2022/08/26 06:21:49;;;;;;;8.30;7.30;;;21.30;99.90;;;;;;5075094;28;20244;-82
2022/08/26 06:27:12;;;;;;;9.23;8.35;;;21.50;99.90;;;;;;5074571;28;20200;-83
2022/08/26 06:29:42;;;;;;;16.10;9.48;;;21.60;99.90;;;;;;5074207;28;20205;-83
2022/08/26 06:32:10;;;;;;;12.63;8.57;;;21.70;99.90;;;;;;5067435;28;20300;-83
2022/08/26 06:34:38;;;;;;;21.77;8.48;;;21.80;99.90;;;;;;5066063;28;20247;-84
2022/08/26 06:37:07;;;;;;;25.80;10.10;;;21.90;99.90;;;;;;5060774;28;20297;-82
2022/08/26 06:39:36;;;;;;;9.55;8.65;;;22.00;99.90;;;;;;5061565;28;20197;-83
2022/08/26 06:42:10;;;;;;;11.45;10.13;;;22.10;99.90;;;;;;5074491;28;20229;-84
2022/08/26 06:44:40;;;;;;;13.43;12.02;;;22.30;99.90;;;;;;5073853;28;20197;-88
2022/08/26 06:47:11;;;;;;;16.90;11.43;;;22.40;99.90;;;;;;5074121;28;20236;-88
2022/08/26 06:49:39;;;;;;;17.27;11.25;;;22.60;99.90;;;;;;5073795;28;20292;-85
2022/08/26 06:52:08;;;;;;;16.20;11.52;;;22.70;99.90;;;;;;5074186;28;20229;-88
2022/08/26 06:54:40;;;;;;;12.82;11.50;;;22.90;99.90;;;;;;5072867;28;20272;-84
2022/08/26 06:57:11;;;;;;;11.50;10.27;;;23.00;99.90;;;;;;5074220;28;20205;-84
2022/08/26 06:59:41;;;;;;;11.82;10.70;;;23.10;99.90;;;;;;5073588;28;20201;-83
2022/08/26 07:02:10;;;;;;;12.82;11.40;;;23.20;99.90;;;;;;5073309;28;20225;-85
2022/08/26 07:04:41;;;;;;;15.90;12.18;;;23.30;99.90;;;;;;5073542;28;20229;-88
2022/08/26 07:07:13;;;;;;;13.27;11.38;;;23.40;99.90;;;;;;5059830;28;20221;-86
2022/08/26 07:09:41;;;;;;;15.23;11.25;;;23.60;99.90;;;;;;5062436;28;20280;-81
2022/08/26 07:12:11;;;;;;;11.65;10.25;;;23.80;99.90;;;;;;5061466;28;20243;-86
2022/08/26 07:14:40;;;;;;;13.43;11.30;;;24.00;99.90;;;;;;5063126;28;20205;-83
2022/08/26 07:17:15;;;;;;;12.65;11.32;;;24.20;99.90;;;;;;5061833;28;20212;-83
2022/08/26 07:19:43;;;;;;;10.60;9.57;;;24.30;99.90;;;;;;5057118;28;20201;-83
2022/08/26 07:22:12;;;;;;;13.07;11.02;;;24.30;99.90;;;;;;5053303;28;20221;-83
2022/08/26 07:24:41;;;;;;;15.77;12.68;;;24.40;99.90;;;;;;5059159;28;20194;-83
2022/08/26 07:27:14;;;;;;;17.85;10.73;;;24.50;99.90;;;;;;5067352;28;20220;-83
2022/08/26 07:29:44;;;;;;;13.18;10.60;;;24.70;99.90;;;;;;5058480;28;20217;-82
2022/08/26 07:32:13;;;;;;;12.95;10.60;;;24.80;99.90;;;;;;5054949;28;20229;-81
2022/08/26 07:34:42;;;;;;;13.30;11.48;;;24.90;99.90;;;;;;5055183;28;20261;-77
2022/08/26 07:37:12;;;;;;;12.00;9.85;;;24.90;99.90;;;;;;5073160;28;20264;-87
2022/08/26 07:39:41;;;;;;;11.43;10.25;;;25.00;99.90;;;;;;5072186;28;20211;-88
2022/08/26 07:42:13;;;;;;;9.93;8.93;;;25.10;99.90;;;;;;5068680;28;20236;-87
2022/08/26 07:44:43;;;;;;;13.40;10.25;;;25.20;99.90;;;;;;5070762;28;20223;-87
2022/08/26 07:47:12;;;;;;;10.68;8.27;;;25.30;99.90;;;;;;5071456;28;20288;-88
2022/08/26 07:49:54;;;;;;;12.02;7.82;;;25.40;99.90;;;;;;5072396;28;20193;-87
2022/08/26 07:52:22;;;;;;;9.07;8.18;;;25.60;99.90;;;;;;5072763;28;20241;-88
2022/08/26 07:54:54;;;;;;;10.60;8.30;;;25.70;99.90;;;;;;5068517;28;20201;-88
2022/08/26 07:57:25;;;;;;;9.98;8.75;;;25.90;99.90;;;;;;5057083;28;20280;-87
2022/08/26 07:59:53;;;;;;;15.00;8.52;;;26.00;99.90;;;;;;5061276;28;20197;-85
2022/08/26 08:02:23;;;;;;;6.82;6.32;;;26.20;99.90;;;;;;5055841;28;20221;-85
2022/08/26 08:04:52;;;;;;;9.93;7.45;;;26.50;99.90;;;;;;5052698;28;20284;-85
2022/08/26 08:07:20;;;;;;;10.20;8.00;;;26.80;99.90;;;;;;5052646;28;20219;-85
2022/08/26 08:10:06;;;;;;;10.07;8.68;;;27.20;99.90;;;;;;5053575;28;20242;-87
2022/08/26 08:12:40;;;;;;;8.93;7.72;;;27.60;99.90;;;;;;5063533;28;20225;-87
2022/08/26 08:15:12;;;;;;;8.20;7.47;;;28.00;99.90;;;;;;5064318;28;20277;-86
2022/08/26 08:17:41;;;;;;;6.85;6.20;;;28.40;99.90;;;;;;5058183;28;20249;-87
2022/08/26 08:20:11;;;;;;;8.60;6.82;;;29.00;99.90;;;;;;5082586;28;20189;-91
2022/08/26 08:22:39;;;;;;;9.38;6.30;;;29.60;99.90;;;;;;5069524;28;20300;-87
2022/08/26 08:25:08;;;;;;;8.38;6.07;;;30.00;99.90;;;;;;5059489;28;20276;-88
2022/08/26 08:27:41;;;;;;;7.35;6.18;;;30.70;99.90;;;;;;5072684;28;20208;-87
2022/08/26 08:30:10;;;;;;;10.02;6.90;;;31.50;99.90;;;;;;5065735;28;20193;-88
2022/08/26 08:32:42;;;;;;;8.40;7.28;;;31.40;99.90;;;;;;5053183;28;20299;-82
2022/08/26 08:35:12;;;;;;;10.52;6.20;;;32.10;99.90;;;;;;5057985;28;20206;-83
2022/08/26 08:37:41;;;;;;;6.10;5.50;;;32.70;99.90;;;;;;5071947;28;20204;-83
2022/08/26 08:40:12;;;;;;;7.85;6.57;;;33.00;99.90;;;;;;5071657;28;20204;-83
2022/08/26 08:42:47;;;;;;;7.63;6.25;;;33.40;99.90;;;;;;5070315;28;20226;-84
2022/08/26 08:45:21;;;;;;;8.52;5.88;;;33.80;99.90;;;;;;5069236;28;20208;-83
2022/08/26 08:47:53;;;;;;;6.25;5.65;;;34.50;99.90;;;;;;5053147;28;20200;-83
2022/08/26 08:50:31;;;;;;;6.47;5.43;;;34.90;99.90;;;;;;5062887;28;20205;-83
2022/08/26 08:53:08;;;;;;;13.55;5.97;;;35.20;99.90;;;;;;5055920;28;20239;-85
2022/08/26 08:55:56;;;;;;;6.88;5.57;;;35.10;99.90;;;;;;5069714;28;20196;-84
2022/08/26 08:58:35;;;;;;;8.90;5.80;;;35.00;99.90;;;;;;5075377;28;20255;-84
2022/08/26 09:01:08;;;;;;;6.03;5.18;;;34.80;99.90;;;;;;5076105;28;20279;-84
2022/08/26 09:03:48;;;;;;;6.68;6.00;;;34.90;99.40;;;;;;5072612;28;20236;-85
2022/08/26 09:06:17;;;;;;;7.78;6.07;;;34.80;99.80;;;;;;5065172;28;20288;-84
2022/08/26 09:08:47;;;;;;;6.25;5.63;;;35.20;99.50;;;;;;5067085;28;20196;-84
2022/08/26 09:11:19;;;;;;;6.95;5.43;;;35.50;99.40;;;;;;5074756;28;20230;-84
2022/08/26 09:13:53;;;;;;;5.88;5.30;;;35.90;98.10;;;;;;5074869;28;20251;-85
2022/08/26 09:16:27;;;;;;;6.68;5.43;;;35.50;96.40;;;;;;5075500;28;20226;-84
2022/08/26 09:19:14;;;;;;;13.30;6.30;;;35.70;96.60;;;;;;5065782;28;20255;-84
2022/08/26 09:21:46;;;;;;;5.97;5.20;;;35.80;97.30;;;;;;5061498;28;20225;-84
2022/08/26 09:24:20;;;;;;;9.15;5.03;;;36.20;96.30;;;;;;5055948;28;20221;-84
2022/08/26 09:26:57;;;;;;;6.07;5.50;;;36.60;95.50;;;;;;5055369;28;20201;-84
2022/08/26 09:29:28;;;;;;;10.27;5.50;;;36.60;95.70;;;;;;5055865;28;20223;-84
2022/08/26 09:32:14;;;;;;;5.90;5.30;;;37.20;95.60;;;;;;5057685;28;20232;-84
2022/08/26 09:34:55;;;;;;;10.13;5.30;;;37.80;95.20;;;;;;5059227;28;20231;-86
2022/08/26 09:37:40;;;;;;;6.55;5.60;;;38.30;92.80;;;;;;5059137;28;20196;-84
2022/08/26 09:40:15;;;;;;;5.15;4.75;;;38.10;90.10;;;;;;5074445;28;20215;-84
2022/08/26 09:42:44;;;;;;;5.60;5.10;;;38.40;91.00;;;;;;5074650;28;20238;-84
2022/08/26 09:45:27;;;;;;;6.22;4.93;;;38.20;90.50;;;;;;5074634;28;20223;-84
2022/08/26 09:47:58;;;;;;;5.60;4.55;;;37.40;91.10;;;;;;5074805;28;20211;-84
2022/08/26 09:50:31;;;;;;;9.45;5.72;;;37.60;92.70;;;;;;5074914;28;20208;-84
2022/08/26 09:53:09;;;;;;;8.00;4.57;;;38.10;89.10;;;;;;5074821;28;20284;-84
2022/08/26 09:55:41;;;;;;;5.55;5.05;;;38.40;90.20;;;;;;5074767;28;20201;-85
2022/08/26 09:58:13;;;;;;;8.57;5.05;;;38.60;87.10;;;;;;5074841;28;20289;-84
2022/08/26 10:00:54;;;;;;;6.63;5.40;;;38.50;86.00;;;;;;5074446;28;20287;-84
2022/08/26 10:03:27;;;;;;;5.32;4.70;;;38.40;85.20;;;;;;5074245;28;20208;-84
2022/08/26 10:06:00;;;;;;;6.57;4.47;;;38.20;85.70;;;;;;5074661;28;20316;-84
2022/08/26 10:08:31;;;;;;;5.15;4.72;;;37.80;87.60;;;;;;5075330;28;20218;-84
2022/08/26 10:11:05;;;;;;;7.28;5.13;;;37.80;83.90;;;;;;5075281;28;20287;-85
2022/08/26 10:13:39;;;;;;;4.97;4.57;;;38.20;85.90;;;;;;5074867;28;20214;-84
2022/08/26 10:16:16;;;;;;;5.75;5.13;;;38.20;85.70;;;;;;5074919;28;20218;-85
2022/08/26 10:18:50;;;;;;;6.22;4.80;;;38.50;84.90;;;;;;5074682;28;20283;-85
2022/08/26 10:21:23;;;;;;;5.25;4.15;;;38.80;85.30;;;;;;5074606;28;20251;-85
2022/08/26 10:23:57;;;;;;;6.90;3.97;;;39.20;82.70;;;;;;5074506;28;20203;-85
2022/08/26 10:26:30;;;;;;;6.50;4.38;;;39.40;81.60;;;;;;5074766;28;20209;-85
2022/08/26 10:29:05;;;;;;;6.25;5.13;;;39.40;77.60;;;;;;5074688;28;20208;-85
2022/08/26 10:31:39;;;;;;;5.40;4.90;;;39.10;76.90;;;;;;5074740;28;20232;-84
2022/08/26 10:34:09;;;;;;;7.20;4.65;;;38.90;79.40;;;;;;5074682;28;20204;-84
2022/08/26 10:36:55;;;;;;;5.30;4.22;;;38.20;79.90;;;;;;5074655;28;20243;-85
2022/08/26 10:39:49;;;;;;;6.20;4.80;;;37.50;77.80;;;;;;5074447;28;20207;-84
2022/08/26 10:42:32;;;;;;;4.50;4.10;;;36.80;78.80;;;;;;5074203;28;20232;-85
2022/08/26 10:45:05;;;;;;;5.63;4.57;;;36.50;78.10;;;;;;5074632;28;20234;-85
2022/08/26 10:47:43;;;;;;;9.18;5.05;;;35.90;79.30;;;;;;5074397;28;20215;-84
2022/08/26 10:50:11;;;;;;;4.30;3.90;;;35.50;79.70;;;;;;5073949;28;20204;-84
2022/08/26 10:52:55;;;;;;;4.70;4.30;;;35.20;80.00;;;;;;5074089;28;20224;-84
2022/08/26 10:55:32;;;;;;;6.50;4.97;;;34.90;80.90;;;;;;5073969;28;20292;-84
2022/08/26 10:58:23;;;;;;;7.93;4.68;;;34.90;81.50;;;;;;5074342;28;20254;-84
2022/08/26 11:03:59;;;;;;;16.77;4.97;;;35.10;82.80;;;;;;5073909;28;20220;-84
2022/08/26 11:06:30;;;;;;;8.02;5.07;;;35.10;84.60;;;;;;5073422;28;20221;-84
2022/08/26 11:09:00;;;;;;;10.57;5.35;;;35.00;82.20;;;;;;5073551;28;20204;-84
2022/08/26 11:11:45;;;;;;;5.13;4.68;;;34.90;81.50;;;;;;5073627;28;20231;-84
2022/08/26 11:14:32;;;;;;;6.05;5.25;;;35.00;81.30;;;;;;5073039;28;20205;-84
2022/08/26 11:17:55;;;;;;;6.80;6.10;;;34.90;84.00;;;;;;5073884;28;20238;-84
2022/08/26 11:20:36;;;;;;;7.78;5.50;;;34.50;84.90;;;;;;5073321;28;20322;-84
2022/08/26 11:23:38;;;;;;;4.95;4.55;;;34.50;83.60;;;;;;5073773;28;20228;-84
2022/08/26 11:26:17;;;;;;;7.82;5.45;;;34.40;84.90;;;;;;5073099;28;20322;-84
2022/08/26 11:29:05;;;;;;;6.15;5.10;;;34.20;85.30;;;;;;5073113;28;20215;-84
2022/08/26 11:31:55;;;;;;;9.65;5.68;;;34.30;87.40;;;;;;5073031;28;20227;-84
2022/08/26 11:34:56;;;;;;;6.68;5.97;;;34.80;87.30;;;;;;5073354;28;20219;-84
2022/08/26 11:37:32;;;;;;;7.53;5.75;;;35.20;81.70;;;;;;5073152;28;20304;-84
2022/08/26 11:40:04;;;;;;;6.78;5.65;;;35.60;82.50;;;;;;5072863;28;20215;-83
2022/08/26 11:42:39;;;;;;;8.20;5.07;;;35.80;83.00;;;;;;5073168;28;20232;-84
2022/08/26 11:45:19;;;;;;;6.80;6.15;;;36.20;80.70;;;;;;5073221;28;20278;-84
2022/08/26 11:47:47;;;;;;;5.15;4.63;;;36.60;82.60;;;;;;5073250;28;20231;-84
2022/08/26 11:50:20;;;;;;;6.82;5.63;;;36.90;79.40;;;;;;5072947;28;20295;-84
2022/08/26 11:53:00;;;;;;;5.45;4.95;;;37.10;77.70;;;;;;5076325;28;20226;-84
2022/08/26 11:55:33;;;;;;;6.75;4.97;;;37.50;77.70;;;;;;5093006;28;20196;-83
2022/08/26 11:58:03;;;;;;;15.60;5.45;;;37.80;76.40;;;;;;5087012;28;20208;-84
2022/08/26 12:00:47;;;;;;;5.45;4.95;;;38.10;80.20;;;;;;5073208;28;20204;-84
2022/08/26 12:03:19;;;;;;;6.05;5.45;;;38.50;78.90;;;;;;5073311;28;20264;-84
2022/08/26 12:05:52;;;;;;;8.40;5.82;;;39.10;77.80;;;;;;5072770;28;20224;-85
2022/08/26 12:08:26;;;;;;;5.28;4.72;;;39.40;77.60;;;;;;5072826;28;20278;-84
2022/08/26 12:11:05;;;;;;;6.93;4.85;;;39.70;76.80;;;;;;5072889;28;20286;-84
2022/08/26 12:13:34;;;;;;;5.85;5.18;;;39.80;72.00;;;;;;5073072;28;20208;-84
2022/08/26 12:16:06;;;;;;;5.63;4.60;;;40.20;71.50;;;;;;5072905;28;20223;-84
2022/08/26 12:18:36;;;;;;;6.97;4.40;;;40.40;72.70;;;;;;5072891;28;20291;-84
2022/08/26 12:21:13;;;;;;;6.47;4.18;;;40.00;70.50;;;;;;5072554;28;20204;-84
2022/08/26 12:23:46;;;;;;;5.85;5.03;;;39.80;70.30;;;;;;5072403;28;20200;-84
2022/08/26 12:26:22;;;;;;;7.47;3.88;;;39.60;70.80;;;;;;5072725;28;20236;-84
2022/08/26 12:28:54;;;;;;;10.07;3.85;;;39.30;66.20;;;;;;5072507;28;20215;-84
2022/08/26 12:31:31;;;;;;;5.10;3.80;;;39.30;62.20;;;;;;5072524;28;20224;-85
2022/08/26 12:34:00;;;;;;;4.60;3.13;;;39.20;63.30;;;;;;5072590;28;20226;-85
2022/08/26 12:36:32;;;;;;;4.65;3.70;;;39.00;62.30;;;;;;5072794;28;20220;-82
2022/08/26 12:39:10;;;;;;;6.18;3.63;;;38.90;62.30;;;;;;5072531;28;20303;-84
2022/08/26 12:41:41;;;;;;;9.55;3.85;;;38.40;60.60;;;;;;5072556;28;20314;-84
2022/08/26 12:44:30;;;;;;;4.70;3.50;;;38.40;62.30;;;;;;5072639;28;20215;-84
2022/08/26 12:47:07;;;;;;;6.55;3.22;;;38.60;62.00;;;;;;5072382;28;20284;-82
2022/08/26 12:49:36;;;;;;;6.10;4.00;;;38.70;64.70;;;;;;5072621;28;20252;-84
2022/08/26 12:52:05;;;;;;;9.50;4.78;;;39.10;64.50;;;;;;5072303;28;20235;-84
2022/08/26 12:57:27;;;;;;;5.97;3.88;;;39.00;66.70;;;;;;5072190;28;20206;-84
2022/08/26 13:00:30;;;;;;;8.10;4.13;;;38.90;66.70;;;;;;5072835;28;20204;-84
2022/08/26 13:03:00;;;;;;;7.82;4.05;;;38.90;66.20;;;;;;5072173;28;20226;-84
2022/08/26 13:05:33;;;;;;;7.30;3.85;;;38.90;64.90;;;;;;5072219;28;20207;-84
2022/08/26 13:08:27;;;;;;;6.88;4.20;;;39.10;64.90;;;;;;5072561;28;20221;-84
2022/08/26 13:11:09;;;;;;;6.07;4.15;;;39.10;65.40;;;;;;5062531;28;20212;-84
2022/08/26 13:13:37;;;;;;;5.70;3.95;;;39.10;65.50;;;;;;5072208;28;20204;-84
2022/08/26 13:16:07;;;;;;;7.90;4.55;;;38.90;64.60;;;;;;5072241;28;20260;-84
2022/08/26 13:18:35;;;;;;;6.45;4.30;;;38.70;65.30;;;;;;5072122;28;20296;-84
2022/08/26 13:21:11;;;;;;;6.32;4.88;;;38.70;64.20;;;;;;5072034;28;20263;-84
2022/08/26 13:23:39;;;;;;;5.07;4.18;;;38.40;64.10;;;;;;5072140;28;20219;-84